Terminal Aerodrome Forecast
Issued by NWS

Home | Current Version | Previous Version | Text Only | Print | Product List | Glossary On
Versions: 1 2 3 4 5 6 7 8 9 10 11 12 13 14 15 16 17
715
FTUS46 KSEW 011722
TAFOLM
TAF
KOLM 011722Z 0118/0218 20010KT P6SM SCT030 OVC070
      TEMPO 0118/0122 BKN030 OVC070
     FM020400 20005KT 5SM BR SCT012 OVC025
     FM020600 20005KT 4SM BR OVC012=

USA.gov is the U.S. government's official web portal to all federal, state and local government web resources and services.